НОТАМы для Домодедово, Пулково и Елизово.

Taras Shelest

Taras Shelest

изувер
Если у кого есть свежие НОТАМы для UUDD, ULLI и UHPP, поделитесь пожалуйста.
 
Реклама
GerSer/EETN

GerSer/EETN

Местный
Тарас , есть на английском языке :


AIS NORWAY - PREFLIGHT INFORMATION BULLETIN: 060528/1801
GENERAL BULLETIN
INCLUDES NOTAM VALID FROM: 281801 FOR: 24 HOUR(S)
AERODROMES: UUDD, ULLI, UHPP
HEIGHT: 000/999
PERM NOTAM CUTOFF: 60 DAY(S)
TRAFFIC: IV PURPOSE: NBO SCOPE: AEW
SNOWTAM: NO MET: METAR/TAF/SIGMET/ICE
--------------------------------------------------------------------

>>> UUDD (MOSCOW/DOMODEDOVO) <<<

METAR 281730Z 21002MPS 170V290 CAVOK 11/04 Q1006 NOSIG

TAF (FC) 281615Z 281803 23004MPS 3000 BR BKN020 SCT025CB TEMPO 1803
1000 SCT004 BKN015

TAF (FT) 281600Z 281818 24004MPS 3000 BR BKN020 SCT025CB TEMPO 1804
1000 SCT004 FM0400 13007G12MPS 5000 RA OVC007 SCT015CB TEMPO
0418 2000 SHRA SCT004 BKN015CB PROB40 TEMPO 0418 TSRA


SCHEDULE: TUE WED THU SUN 2210-0215
AD CLSD FOR ACFT ARR DUE TO RWY 14L/32R REPAIR. : NOTAM UU/A2036/06

WIP ON NORTH SIDE OF RWY 14R/32L AT DIST 80M FROM RCL AND AT THE
EXTREMITY OF RWY 32L. RWY 14R NOT AVBL FOR TKOF AND LDG. RWY 32L
AVBL FOR TKOF ONLY. TKOF CARRIED OUT FROM TWY 8. DECLARED DIST:
TORA ASDA 2900M, TODA 3300M. : NOTAM UU/A1926/06

WEF 10 APR 2006 AD AVBL FOR SAAB-2000 ACFT AND ITS MODIFICATIONS
IN THE PRESENCE MAINTENANCE KIT ON BOARD.
REF AIP AD 1.5-3. : NOTAM UU/A1826/06

SINCE 10 APR 2006 AD APPROVED TO ACCEPTANCE OF RJ-85 ACFT AND ITS
MODIFICATIONS WITH PRESENCE MAINTENANCE KIT ON BOARD.
REF AIP AD 1.5-3. : NOTAM UU/A1817/06

SCHEDULE: 0500-0900 AND 1400-2000
AD CLSD FOR CARGO FLT : NOTAM UU/A1217/06

DOMODEDOVO-DELIVERY FREQ 123.750 MHZ INTRODUCED.
10 MIN BEFORE DEP TIME ACFT CREW SHALL REPORT ACFT TYPE, STAND
NUMBER, ATIS INFORMATION AND RECEIVE FM DOMODEDOVO-DELIVERY RWY
NUMBER FOR TKOF AND QNH. : NOTAM UU/A1867/06

REF AIP AD 2.1 UUDD-79 DATED 13 APR 2006 RWY 14C SID LO14G INITIAL
TURN COORD N5521.3 E03757.4 INSTEAD OF PUBLISHED. : NOTAM UU/A1492/06

>>> ULLI (ST PETERBURG PULKOVA) <<<

METAR 281730Z 29004MPS CAVOK 11/04 Q0999 NOSIG

TAF (FC) 281640Z 281803 26008MPS 9000 BKN030 TEMPO 1824 1600 SHRA
BKN007 BKN015CB TEMPO 0003 1000 BR SCT005 BECMG 2224
21005MPS

TAF (FT) 281600Z 281818 26006G11MPS 9000 BKN030 TEMPO 1824 1500 SHRA
BKN005 BKN010CB TEMPO 0006 0400 FG VV002 TEMPO 0618 2500
SHRA BKN007 BKN015CB


RWY 10R/28L WIDTH RESTRICTED TO 45M ALONG FULL LENGTH.
: NOTAM UU/A2703/06

AD NOT AVBL AS ALTN. AD AVBL AS ALTN ONLY FOR EMERG ACFT AND ACFT
WITH VIP ON BOARD. : NOTAM UU/A2478/06

ALL NON SKED ACFT ARR AVBL ONLY BY PERMISSION OF AD
ADMINISTRATION. : NOTAM UU/A2476/06

ACFT TAX FM APN 3 TO APN 1 AND VICE VERSA CARRIED OUT WITH
FOLLOW-ME CAR ALONG RTE: TWY B2 - RWY 28R/10L - TWY B5. TWY B1, B7
CLSD DUE TO REPAIR. : NOTAM UU/A2459/06

SCHEDULE: DAILY 2200-0100
RWY 28L/10R CLSD DUE TO SCHEDULED MAINTENANCE. : NOTAM UU/A1281/06

RWY 28R/10L CLSD FOR TAKE OFF AND LANDING : NOTAM UU/A5731/05

RWY 28R LOM PL 525 KHZ U/S. RWY 28L LOM PO 277 KHZ AVBL FOR
TRANSIT FLT. : NOTAM UU/A2277/06

>>> UHPP (PETROPAVLOVSK/YELIZOVO) <<<

METAR 281700Z 00000MPS 3000 BR BKN003 02/01 Q1028 NOSIG RMK QBB 090
QFE 767 SC 07

TAF (FC) NIL
TAF (FT) NOT AVAILABLE

AD NOT AVBL AS ALTN FOR ACFT OF FOREIGN AIRLINES 0700-1900 DUE TO
ABSENCE OF CUSTOMS AND IMMIGRATION CONTROL. ARR OF FOREIGN ACFT
PROVIDED ON PRIOR REQ WITHOUT RESTRICTIONS H24. EMERGENCY LDG OF
FOREIGN ACFT AVBL H24. EMERGENCY-RESCUE PROVIDED 0700-1900.
: NOTAM UU/A1261/06

WI MARKOVO CTA AT FL ABOVE 8100M DLY 2200-0500 MAGADAN-CONTROL
PROVIDES ATS ON FREQ 123,50 MHZ PRIMARY, 129,0 MHZ SECONDARY,
SELKAL 5550 KHZ - DAY, 2884 KHZ - NIGHT. ANADYR-CENTRE PROVIDES ATS
FOR ATS RTE G212, B244, B337 FM FRI 0500 TILL SUN 2200 AND ON PUB
HOL. : NOTAM UU/A2708/06

ATS RTE B932 SEGMENT KOKES-TOKVI NOT AVBL FROM 5100M AMSL TO
14000M AMSL : NOTAM UU/A2522/06

SID NASTA (NS) RENAMED TO SID RINOT (RN). REF AIP AD 2.1
UHPP-55,61/62,63,69/70,71. : NOTAM UU/A1581/06

STAR NASTA (NS) RENAMED TO STAR RINOT (RN). REF AIP AD 2.1
UHPP-55,83,89. : NOTAM UU/A1582/06

WI TMA CRP NASTA 5203.4N 15912.8E CHANGED TO CRP RINOT WITH SAME
COORD. REF AIP AD 2.1 UHPP-55,61/62,63,69/70,71,89.
: NOTAM UU/A0913/06

ACC OPR HR: 2200-0500 EXCEPT SAT SUN AND PUBLIC HOL. OUTSIDE
MARKOVO ACC OPR HR ATC PROVIDED BY ANADYR ACC (ANADYR-CENTRE) ALONG
ATS RTE G212 B244 B337 ONLY. : NOTAM UU/A1347/06

ACC OPR HR: 2100-0400 DLY EXC SAT SUN AND PUBLIC HOL
: NOTAM UU/A1351/06

ACC OPR HR: 2000-0500 DLY EXC SAT SUN AND PUBLIC HOL
: NOTAM UU/A1346/06

>>> END-OF-BULLETIN <<<

Return